sensor_id;sensor_type;location;lat;lon;timestamp;P1;durP1;ratioP1;P2;durP2;ratioP2
6979;SDS011;3530;52.832;10.680;2022-10-30T00:00:38;11.57;;;6.57;;
6979;SDS011;3530;52.832;10.680;2022-10-30T00:03:24;8.73;;;7.03;;
6979;SDS011;3530;52.832;10.680;2022-10-30T00:06:10;9.55;;;6.80;;
6979;SDS011;3530;52.832;10.680;2022-10-30T00:08:55;12.35;;;6.88;;
6979;SDS011;3530;52.832;10.680;2022-10-30T00:11:41;10.35;;;7.53;;
6979;SDS011;3530;52.832;10.680;2022-10-30T00:14:27;12.43;;;6.82;;
6979;SDS011;3530;52.832;10.680;2022-10-30T00:17:12;11.10;;;7.53;;
6979;SDS011;3530;52.832;10.680;2022-10-30T00:19:58;13.02;;;6.55;;
6979;SDS011;3530;52.832;10.680;2022-10-30T00:22:43;8.70;;;7.20;;
6979;SDS011;3530;52.832;10.680;2022-10-30T00:25:29;9.73;;;7.28;;
6979;SDS011;3530;52.832;10.680;2022-10-30T00:28:15;9.50;;;7.05;;
6979;SDS011;3530;52.832;10.680;2022-10-30T00:31:01;7.50;;;6.00;;
6979;SDS011;3530;52.832;10.680;2022-10-30T00:33:51;12.38;;;6.43;;
6979;SDS011;3530;52.832;10.680;2022-10-30T00:36:37;6.60;;;5.90;;
6979;SDS011;3530;52.832;10.680;2022-10-30T00:39:23;9.05;;;6.68;;
6979;SDS011;3530;52.832;10.680;2022-10-30T00:42:12;7.78;;;6.97;;
6979;SDS011;3530;52.832;10.680;2022-10-30T00:44:59;10.90;;;6.95;;
6979;SDS011;3530;52.832;10.680;2022-10-30T00:47:45;9.57;;;6.15;;
6979;SDS011;3530;52.832;10.680;2022-10-30T00:50:35;7.05;;;5.93;;
6979;SDS011;3530;52.832;10.680;2022-10-30T00:53:21;12.93;;;7.53;;
6979;SDS011;3530;52.832;10.680;2022-10-30T00:56:07;8.88;;;5.93;;
6979;SDS011;3530;52.832;10.680;2022-10-30T00:59:00;8.23;;;6.45;;
6979;SDS011;3530;52.832;10.680;2022-10-30T01:01:48;9.40;;;6.78;;
6979;SDS011;3530;52.832;10.680;2022-10-30T01:04:35;9.20;;;6.35;;
6979;SDS011;3530;52.832;10.680;2022-10-30T01:07:22;9.32;;;7.32;;
6979;SDS011;3530;52.832;10.680;2022-10-30T01:10:08;9.23;;;6.20;;
6979;SDS011;3530;52.832;10.680;2022-10-30T01:12:54;10.52;;;6.60;;
6979;SDS011;3530;52.832;10.680;2022-10-30T01:15:46;14.82;;;7.28;;
6979;SDS011;3530;52.832;10.680;2022-10-30T01:21:32;8.95;;;6.97;;
6979;SDS011;3530;52.832;10.680;2022-10-30T01:27:21;8.60;;;6.32;;
6979;SDS011;3530;52.832;10.680;2022-10-30T01:33:03;11.30;;;6.38;;
6979;SDS011;3530;52.832;10.680;2022-10-30T01:35:56;7.20;;;6.45;;
6979;SDS011;3530;52.832;10.680;2022-10-30T01:38:50;7.60;;;6.47;;
6979;SDS011;3530;52.832;10.680;2022-10-30T01:41:38;9.38;;;6.45;;
6979;SDS011;3530;52.832;10.680;2022-10-30T01:44:25;8.57;;;6.97;;
6979;SDS011;3530;52.832;10.680;2022-10-30T01:47:17;14.45;;;7.00;;
6979;SDS011;3530;52.832;10.680;2022-10-30T01:50:08;13.73;;;6.70;;
6979;SDS011;3530;52.832;10.680;2022-10-30T01:59:03;10.00;;;6.72;;
6979;SDS011;3530;52.832;10.680;2022-10-30T02:01:51;12.75;;;7.13;;
6979;SDS011;3530;52.832;10.680;2022-10-30T02:04:37;9.60;;;6.82;;
6979;SDS011;3530;52.832;10.680;2022-10-30T02:07:23;14.70;;;7.68;;
6979;SDS011;3530;52.832;10.680;2022-10-30T02:10:09;8.48;;;7.57;;
6979;SDS011;3530;52.832;10.680;2022-10-30T02:12:55;11.52;;;7.75;;
6979;SDS011;3530;52.832;10.680;2022-10-30T02:15:41;10.57;;;7.03;;
6979;SDS011;3530;52.832;10.680;2022-10-30T02:18:28;8.38;;;5.78;;
6979;SDS011;3530;52.832;10.680;2022-10-30T02:21:14;7.55;;;5.38;;
6979;SDS011;3530;52.832;10.680;2022-10-30T02:24:00;9.05;;;7.15;;
6979;SDS011;3530;52.832;10.680;2022-10-30T02:26:45;12.05;;;7.38;;
6979;SDS011;3530;52.832;10.680;2022-10-30T02:29:31;10.15;;;7.03;;
6979;SDS011;3530;52.832;10.680;2022-10-30T02:32:17;8.68;;;6.82;;
6979;SDS011;3530;52.832;10.680;2022-10-30T02:35:02;10.27;;;7.45;;
6979;SDS011;3530;52.832;10.680;2022-10-30T02:37:48;12.15;;;7.72;;
6979;SDS011;3530;52.832;10.680;2022-10-30T02:40:34;8.20;;;6.38;;
6979;SDS011;3530;52.832;10.680;2022-10-30T02:43:20;10.77;;;7.28;;
6979;SDS011;3530;52.832;10.680;2022-10-30T02:46:05;17.10;;;7.22;;
6979;SDS011;3530;52.832;10.680;2022-10-30T02:48:51;10.13;;;6.57;;
6979;SDS011;3530;52.832;10.680;2022-10-30T02:51:37;10.05;;;6.15;;
6979;SDS011;3530;52.832;10.680;2022-10-30T02:54:22;7.75;;;6.65;;
6979;SDS011;3530;52.832;10.680;2022-10-30T02:57:08;16.98;;;6.47;;
6979;SDS011;3530;52.832;10.680;2022-10-30T02:59:54;11.77;;;7.18;;
6979;SDS011;3530;52.832;10.680;2022-10-30T03:02:40;8.88;;;6.05;;
6979;SDS011;3530;52.832;10.680;2022-10-30T03:05:25;10.32;;;6.20;;
6979;SDS011;3530;52.832;10.680;2022-10-30T03:08:11;12.73;;;5.72;;
6979;SDS011;3530;52.832;10.680;2022-10-30T03:11:16;9.30;;;6.75;;
6979;SDS011;3530;52.832;10.680;2022-10-30T03:14:03;9.00;;;6.70;;
6979;SDS011;3530;52.832;10.680;2022-10-30T03:16:48;11.30;;;6.15;;
6979;SDS011;3530;52.832;10.680;2022-10-30T03:19:36;10.60;;;6.20;;
6979;SDS011;3530;52.832;10.680;2022-10-30T03:22:22;10.65;;;6.57;;
6979;SDS011;3530;52.832;10.680;2022-10-30T03:25:08;13.45;;;5.70;;
6979;SDS011;3530;52.832;10.680;2022-10-30T03:27:53;8.90;;;6.40;;
6979;SDS011;3530;52.832;10.680;2022-10-30T03:30:39;8.38;;;6.30;;
6979;SDS011;3530;52.832;10.680;2022-10-30T03:33:25;10.02;;;6.18;;
6979;SDS011;3530;52.832;10.680;2022-10-30T03:36:11;12.68;;;5.95;;
6979;SDS011;3530;52.832;10.680;2022-10-30T03:38:57;8.55;;;5.40;;
6979;SDS011;3530;52.832;10.680;2022-10-30T03:41:43;13.82;;;6.88;;
6979;SDS011;3530;52.832;10.680;2022-10-30T03:44:29;9.48;;;6.40;;
6979;SDS011;3530;52.832;10.680;2022-10-30T03:47:14;9.23;;;5.65;;
6979;SDS011;3530;52.832;10.680;2022-10-30T03:50:00;7.38;;;6.20;;
6979;SDS011;3530;52.832;10.680;2022-10-30T03:52:45;9.20;;;6.15;;
6979;SDS011;3530;52.832;10.680;2022-10-30T03:55:31;8.57;;;5.90;;
6979;SDS011;3530;52.832;10.680;2022-10-30T03:58:17;10.30;;;5.60;;
6979;SDS011;3530;52.832;10.680;2022-10-30T04:01:04;7.93;;;5.85;;
6979;SDS011;3530;52.832;10.680;2022-10-30T04:03:50;10.80;;;6.13;;
6979;SDS011;3530;52.832;10.680;2022-10-30T04:06:36;10.32;;;7.40;;
6979;SDS011;3530;52.832;10.680;2022-10-30T04:09:21;8.82;;;6.10;;
6979;SDS011;3530;52.832;10.680;2022-10-30T04:12:07;7.03;;;6.00;;
6979;SDS011;3530;52.832;10.680;2022-10-30T04:14:53;10.48;;;6.80;;
6979;SDS011;3530;52.832;10.680;2022-10-30T04:17:38;7.43;;;6.22;;
6979;SDS011;3530;52.832;10.680;2022-10-30T04:20:24;11.50;;;6.05;;
6979;SDS011;3530;52.832;10.680;2022-10-30T04:23:15;10.20;;;5.90;;
6979;SDS011;3530;52.832;10.680;2022-10-30T04:26:03;9.98;;;5.75;;
6979;SDS011;3530;52.832;10.680;2022-10-30T04:28:48;10.15;;;6.07;;
6979;SDS011;3530;52.832;10.680;2022-10-30T04:31:34;12.23;;;6.35;;
6979;SDS011;3530;52.832;10.680;2022-10-30T04:34:20;7.78;;;6.72;;
6979;SDS011;3530;52.832;10.680;2022-10-30T04:37:05;11.50;;;6.40;;
6979;SDS011;3530;52.832;10.680;2022-10-30T04:39:51;18.90;;;6.13;;
6979;SDS011;3530;52.832;10.680;2022-10-30T04:42:37;8.00;;;6.00;;
6979;SDS011;3530;52.832;10.680;2022-10-30T04:45:23;8.20;;;5.25;;
6979;SDS011;3530;52.832;10.680;2022-10-30T04:48:11;10.15;;;6.05;;
6979;SDS011;3530;52.832;10.680;2022-10-30T04:50:59;10.20;;;5.75;;
6979;SDS011;3530;52.832;10.680;2022-10-30T04:53:44;9.95;;;6.68;;
6979;SDS011;3530;52.832;10.680;2022-10-30T04:56:30;10.95;;;5.78;;
6979;SDS011;3530;52.832;10.680;2022-10-30T04:59:17;8.77;;;6.40;;
6979;SDS011;3530;52.832;10.680;2022-10-30T05:02:02;10.60;;;6.90;;
6979;SDS011;3530;52.832;10.680;2022-10-30T05:04:48;7.68;;;5.57;;
6979;SDS011;3530;52.832;10.680;2022-10-30T05:07:34;9.40;;;5.53;;
6979;SDS011;3530;52.832;10.680;2022-10-30T05:10:19;11.50;;;6.05;;
6979;SDS011;3530;52.832;10.680;2022-10-30T05:13:05;9.57;;;6.65;;
6979;SDS011;3530;52.832;10.680;2022-10-30T05:15:52;7.65;;;5.55;;
6979;SDS011;3530;52.832;10.680;2022-10-30T05:18:38;8.15;;;5.55;;
6979;SDS011;3530;52.832;10.680;2022-10-30T05:21:23;9.77;;;5.80;;
6979;SDS011;3530;52.832;10.680;2022-10-30T05:24:09;9.10;;;5.35;;
6979;SDS011;3530;52.832;10.680;2022-10-30T05:26:55;8.07;;;5.22;;
6979;SDS011;3530;52.832;10.680;2022-10-30T05:29:40;9.18;;;5.78;;
6979;SDS011;3530;52.832;10.680;2022-10-30T05:32:26;8.05;;;6.03;;
6979;SDS011;3530;52.832;10.680;2022-10-30T05:35:12;11.15;;;4.47;;
6979;SDS011;3530;52.832;10.680;2022-10-30T05:37:58;8.07;;;5.88;;
6979;SDS011;3530;52.832;10.680;2022-10-30T05:40:44;6.10;;;5.32;;
6979;SDS011;3530;52.832;10.680;2022-10-30T05:43:31;8.20;;;6.28;;
6979;SDS011;3530;52.832;10.680;2022-10-30T05:46:16;9.43;;;6.43;;
6979;SDS011;3530;52.832;10.680;2022-10-30T05:49:02;5.50;;;4.88;;
6979;SDS011;3530;52.832;10.680;2022-10-30T05:51:48;10.35;;;5.55;;
6979;SDS011;3530;52.832;10.680;2022-10-30T05:54:33;10.15;;;6.03;;
6979;SDS011;3530;52.832;10.680;2022-10-30T05:57:19;8.32;;;6.13;;
6979;SDS011;3530;52.832;10.680;2022-10-30T06:00:05;8.95;;;5.10;;
6979;SDS011;3530;52.832;10.680;2022-10-30T06:02:51;7.30;;;4.90;;
6979;SDS011;3530;52.832;10.680;2022-10-30T06:05:37;9.32;;;5.45;;
6979;SDS011;3530;52.832;10.680;2022-10-30T06:08:23;9.98;;;6.32;;
6979;SDS011;3530;52.832;10.680;2022-10-30T06:11:09;8.95;;;5.25;;
6979;SDS011;3530;52.832;10.680;2022-10-30T06:13:54;7.70;;;5.43;;
6979;SDS011;3530;52.832;10.680;2022-10-30T06:16:40;7.30;;;5.32;;
6979;SDS011;3530;52.832;10.680;2022-10-30T06:19:26;6.75;;;5.03;;
6979;SDS011;3530;52.832;10.680;2022-10-30T06:22:11;6.28;;;4.88;;
6979;SDS011;3530;52.832;10.680;2022-10-30T06:24:57;5.60;;;5.00;;
6979;SDS011;3530;52.832;10.680;2022-10-30T06:27:43;8.35;;;4.95;;
6979;SDS011;3530;52.832;10.680;2022-10-30T06:30:28;4.75;;;4.22;;
6979;SDS011;3530;52.832;10.680;2022-10-30T06:33:14;5.20;;;4.63;;
6979;SDS011;3530;52.832;10.680;2022-10-30T06:36:00;8.13;;;5.32;;
6979;SDS011;3530;52.832;10.680;2022-10-30T06:38:46;6.53;;;5.18;;
6979;SDS011;3530;52.832;10.680;2022-10-30T06:41:31;6.78;;;4.93;;
6979;SDS011;3530;52.832;10.680;2022-10-30T06:44:19;8.13;;;5.35;;
6979;SDS011;3530;52.832;10.680;2022-10-30T06:47:04;5.68;;;4.60;;
6979;SDS011;3530;52.832;10.680;2022-10-30T06:49:52;5.82;;;4.70;;
6979;SDS011;3530;52.832;10.680;2022-10-30T06:52:38;7.88;;;5.07;;
6979;SDS011;3530;52.832;10.680;2022-10-30T06:55:24;5.10;;;4.60;;
6979;SDS011;3530;52.832;10.680;2022-10-30T06:58:09;3.88;;;3.58;;
6979;SDS011;3530;52.832;10.680;2022-10-30T07:00:58;4.50;;;4.05;;
6979;SDS011;3530;52.832;10.680;2022-10-30T07:03:44;4.30;;;4.00;;
6979;SDS011;3530;52.832;10.680;2022-10-30T07:06:29;4.25;;;3.88;;
6979;SDS011;3530;52.832;10.680;2022-10-30T07:09:15;4.47;;;4.07;;
6979;SDS011;3530;52.832;10.680;2022-10-30T07:12:01;5.05;;;4.45;;
6979;SDS011;3530;52.832;10.680;2022-10-30T07:14:46;5.53;;;4.75;;
6979;SDS011;3530;52.832;10.680;2022-10-30T07:17:32;6.25;;;5.22;;
6979;SDS011;3530;52.832;10.680;2022-10-30T07:20:18;6.75;;;4.65;;
6979;SDS011;3530;52.832;10.680;2022-10-30T07:23:04;6.55;;;4.60;;
6979;SDS011;3530;52.832;10.680;2022-10-30T07:25:50;9.60;;;5.50;;
6979;SDS011;3530;52.832;10.680;2022-10-30T07:28:35;6.70;;;5.00;;
6979;SDS011;3530;52.832;10.680;2022-10-30T07:31:21;10.15;;;5.82;;
6979;SDS011;3530;52.832;10.680;2022-10-30T07:34:06;6.40;;;5.10;;
6979;SDS011;3530;52.832;10.680;2022-10-30T07:36:52;7.38;;;5.53;;
6979;SDS011;3530;52.832;10.680;2022-10-30T07:39:38;7.13;;;4.90;;
6979;SDS011;3530;52.832;10.680;2022-10-30T07:42:23;10.43;;;5.47;;
6979;SDS011;3530;52.832;10.680;2022-10-30T07:45:09;9.80;;;5.47;;
6979;SDS011;3530;52.832;10.680;2022-10-30T07:47:55;7.95;;;5.38;;
6979;SDS011;3530;52.832;10.680;2022-10-30T07:50:41;8.30;;;6.10;;
6979;SDS011;3530;52.832;10.680;2022-10-30T07:53:26;7.03;;;4.68;;
6979;SDS011;3530;52.832;10.680;2022-10-30T07:56:12;5.88;;;5.28;;
6979;SDS011;3530;52.832;10.680;2022-10-30T07:58:58;6.95;;;5.03;;
6979;SDS011;3530;52.832;10.680;2022-10-30T08:01:44;5.65;;;5.07;;
6979;SDS011;3530;52.832;10.680;2022-10-30T08:04:29;8.43;;;6.20;;
6979;SDS011;3530;52.832;10.680;2022-10-30T08:07:15;6.53;;;5.70;;
6979;SDS011;3530;52.832;10.680;2022-10-30T08:10:01;13.13;;;5.22;;
6979;SDS011;3530;52.832;10.680;2022-10-30T08:12:46;7.10;;;4.25;;
6979;SDS011;3530;52.832;10.680;2022-10-30T08:15:32;10.40;;;4.50;;
6979;SDS011;3530;52.832;10.680;2022-10-30T08:18:18;11.95;;;4.32;;
6979;SDS011;3530;52.832;10.680;2022-10-30T08:21:03;5.97;;;4.55;;
6979;SDS011;3530;52.832;10.680;2022-10-30T08:23:50;5.40;;;4.30;;
6979;SDS011;3530;52.832;10.680;2022-10-30T08:26:35;9.88;;;5.43;;
6979;SDS011;3530;52.832;10.680;2022-10-30T08:29:21;7.05;;;4.15;;
6979;SDS011;3530;52.832;10.680;2022-10-30T08:32:07;4.90;;;4.40;;
6979;SDS011;3530;52.832;10.680;2022-10-30T08:34:53;6.05;;;4.13;;
6979;SDS011;3530;52.832;10.680;2022-10-30T08:37:38;9.90;;;5.18;;
6979;SDS011;3530;52.832;10.680;2022-10-30T08:40:25;5.80;;;5.10;;
6979;SDS011;3530;52.832;10.680;2022-10-30T08:43:10;6.25;;;4.80;;
6979;SDS011;3530;52.832;10.680;2022-10-30T08:45:57;8.05;;;5.28;;
6979;SDS011;3530;52.832;10.680;2022-10-30T08:48:42;6.43;;;4.97;;
6979;SDS011;3530;52.832;10.680;2022-10-30T08:51:30;5.90;;;3.97;;
6979;SDS011;3530;52.832;10.680;2022-10-30T08:54:17;6.80;;;4.43;;
6979;SDS011;3530;52.832;10.680;2022-10-30T08:57:02;8.50;;;5.28;;
6979;SDS011;3530;52.832;10.680;2022-10-30T08:59:48;7.22;;;4.72;;
6979;SDS011;3530;52.832;10.680;2022-10-30T09:02:34;7.38;;;4.82;;
6979;SDS011;3530;52.832;10.680;2022-10-30T09:05:21;7.53;;;4.55;;
6979;SDS011;3530;52.832;10.680;2022-10-30T09:08:06;10.50;;;4.43;;
6979;SDS011;3530;52.832;10.680;2022-10-30T09:10:56;6.90;;;4.80;;
6979;SDS011;3530;52.832;10.680;2022-10-30T09:13:42;8.88;;;5.38;;
6979;SDS011;3530;52.832;10.680;2022-10-30T09:16:27;8.38;;;4.43;;
6979;SDS011;3530;52.832;10.680;2022-10-30T09:19:13;9.90;;;5.40;;
6979;SDS011;3530;52.832;10.680;2022-10-30T09:21:59;7.25;;;4.57;;
6979;SDS011;3530;52.832;10.680;2022-10-30T09:24:45;6.05;;;3.92;;
6979;SDS011;3530;52.832;10.680;2022-10-30T09:27:30;6.57;;;4.82;;
6979;SDS011;3530;52.832;10.680;2022-10-30T09:30:16;11.07;;;4.65;;
6979;SDS011;3530;52.832;10.680;2022-10-30T09:33:02;7.65;;;4.65;;
6979;SDS011;3530;52.832;10.680;2022-10-30T09:35:47;9.35;;;4.57;;
6979;SDS011;3530;52.832;10.680;2022-10-30T09:38:33;8.57;;;4.82;;
6979;SDS011;3530;52.832;10.680;2022-10-30T09:41:32;6.20;;;5.30;;
6979;SDS011;3530;52.832;10.680;2022-10-30T09:44:33;9.43;;;5.03;;
6979;SDS011;3530;52.832;10.680;2022-10-30T09:47:42;9.77;;;5.20;;
6979;SDS011;3530;52.832;10.680;2022-10-30T09:53:36;11.70;;;5.22;;
6979;SDS011;3530;52.832;10.680;2022-10-30T09:56:28;6.45;;;4.43;;
6979;SDS011;3530;52.832;10.680;2022-10-30T10:08:14;4.50;;;4.10;;
6979;SDS011;3530;52.832;10.680;2022-10-30T10:11:17;5.50;;;4.90;;
6979;SDS011;3530;52.832;10.680;2022-10-30T10:16:59;13.45;;;5.05;;
6979;SDS011;3530;52.832;10.680;2022-10-30T10:19:47;10.80;;;4.95;;
6979;SDS011;3530;52.832;10.680;2022-10-30T10:22:38;7.93;;;4.78;;
6979;SDS011;3530;52.832;10.680;2022-10-30T10:25:27;12.13;;;5.30;;
6979;SDS011;3530;52.832;10.680;2022-10-30T10:31:23;7.65;;;4.20;;
6979;SDS011;3530;52.832;10.680;2022-10-30T10:37:23;7.82;;;4.68;;
6979;SDS011;3530;52.832;10.680;2022-10-30T10:53:12;9.35;;;4.20;;
6979;SDS011;3530;52.832;10.680;2022-10-30T10:56:03;8.23;;;4.43;;
6979;SDS011;3530;52.832;10.680;2022-10-30T10:58:50;7.03;;;4.15;;
6979;SDS011;3530;52.832;10.680;2022-10-30T11:01:37;6.72;;;4.47;;
6979;SDS011;3530;52.832;10.680;2022-10-30T11:07:29;9.40;;;5.00;;
6979;SDS011;3530;52.832;10.680;2022-10-30T11:10:18;8.73;;;5.25;;
6979;SDS011;3530;52.832;10.680;2022-10-30T11:13:04;6.45;;;4.50;;
6979;SDS011;3530;52.832;10.680;2022-10-30T11:15:56;7.78;;;4.63;;
6979;SDS011;3530;52.832;10.680;2022-10-30T11:18:50;8.13;;;4.10;;
6979;SDS011;3530;52.832;10.680;2022-10-30T11:21:37;8.52;;;5.03;;
6979;SDS011;3530;52.832;10.680;2022-10-30T11:24:30;8.10;;;5.40;;
6979;SDS011;3530;52.832;10.680;2022-10-30T11:30:17;5.55;;;4.35;;
6979;SDS011;3530;52.832;10.680;2022-10-30T11:33:19;7.57;;;4.63;;
6979;SDS011;3530;52.832;10.680;2022-10-30T11:36:09;7.72;;;4.72;;
6979;SDS011;3530;52.832;10.680;2022-10-30T11:38:55;8.88;;;5.30;;
6979;SDS011;3530;52.832;10.680;2022-10-30T11:41:43;7.00;;;4.38;;
6979;SDS011;3530;52.832;10.680;2022-10-30T11:44:48;12.40;;;4.60;;
6979;SDS011;3530;52.832;10.680;2022-10-30T11:47:35;9.85;;;3.78;;
6979;SDS011;3530;52.832;10.680;2022-10-30T11:50:22;7.57;;;4.65;;
6979;SDS011;3530;52.832;10.680;2022-10-30T11:53:15;11.60;;;5.30;;
6979;SDS011;3530;52.832;10.680;2022-10-30T11:56:15;20.77;;;8.07;;
6979;SDS011;3530;52.832;10.680;2022-10-30T11:59:02;18.02;;;8.02;;
6979;SDS011;3530;52.832;10.680;2022-10-30T12:01:56;16.55;;;8.20;;
6979;SDS011;3530;52.832;10.680;2022-10-30T12:04:48;28.90;;;9.95;;
6979;SDS011;3530;52.832;10.680;2022-10-30T12:07:35;12.05;;;7.00;;
6979;SDS011;3530;52.832;10.680;2022-10-30T12:10:24;22.05;;;9.55;;
6979;SDS011;3530;52.832;10.680;2022-10-30T12:13:14;20.00;;;7.97;;
6979;SDS011;3530;52.832;10.680;2022-10-30T12:16:08;18.70;;;8.48;;
6979;SDS011;3530;52.832;10.680;2022-10-30T12:18:58;23.30;;;7.97;;
6979;SDS011;3530;52.832;10.680;2022-10-30T12:21:47;11.35;;;6.32;;
6979;SDS011;3530;52.832;10.680;2022-10-30T12:24:35;10.35;;;5.50;;
6979;SDS011;3530;52.832;10.680;2022-10-30T12:27:22;9.95;;;5.05;;
6979;SDS011;3530;52.832;10.680;2022-10-30T12:33:06;8.60;;;5.07;;
6979;SDS011;3530;52.832;10.680;2022-10-30T12:35:56;13.88;;;5.88;;
6979;SDS011;3530;52.832;10.680;2022-10-30T12:38:44;19.02;;;6.82;;
6979;SDS011;3530;52.832;10.680;2022-10-30T12:41:39;19.48;;;5.63;;
6979;SDS011;3530;52.832;10.680;2022-10-30T12:44:41;11.65;;;5.22;;
6979;SDS011;3530;52.832;10.680;2022-10-30T12:47:33;11.77;;;4.80;;
6979;SDS011;3530;52.832;10.680;2022-10-30T12:50:27;9.63;;;5.75;;
6979;SDS011;3530;52.832;10.680;2022-10-30T12:56:46;9.30;;;4.97;;
6979;SDS011;3530;52.832;10.680;2022-10-30T12:59:39;7.75;;;4.60;;
6979;SDS011;3530;52.832;10.680;2022-10-30T13:05:54;8.50;;;4.80;;
6979;SDS011;3530;52.832;10.680;2022-10-30T13:08:50;7.95;;;4.50;;
6979;SDS011;3530;52.832;10.680;2022-10-30T13:12:09;12.73;;;5.20;;
6979;SDS011;3530;52.832;10.680;2022-10-30T13:15:03;6.68;;;4.80;;
6979;SDS011;3530;52.832;10.680;2022-10-30T13:17:54;7.72;;;4.32;;
6979;SDS011;3530;52.832;10.680;2022-10-30T13:20:43;8.43;;;4.43;;
6979;SDS011;3530;52.832;10.680;2022-10-30T13:23:41;7.55;;;5.03;;
6979;SDS011;3530;52.832;10.680;2022-10-30T13:29:33;7.57;;;4.75;;
6979;SDS011;3530;52.832;10.680;2022-10-30T13:44:34;6.50;;;3.92;;
6979;SDS011;3530;52.832;10.680;2022-10-30T13:47:23;4.97;;;4.47;;
6979;SDS011;3530;52.832;10.680;2022-10-30T13:53:27;4.93;;;4.43;;
6979;SDS011;3530;52.832;10.680;2022-10-30T13:56:15;9.57;;;4.32;;
6979;SDS011;3530;52.832;10.680;2022-10-30T13:59:04;7.18;;;4.65;;
6979;SDS011;3530;52.832;10.680;2022-10-30T14:08:35;9.35;;;4.25;;
6979;SDS011;3530;52.832;10.680;2022-10-30T14:10:58;5.22;;;3.88;;
6979;SDS011;3530;52.832;10.680;2022-10-30T14:13:45;5.60;;;4.10;;
6979;SDS011;3530;52.832;10.680;2022-10-30T14:16:41;9.68;;;4.65;;
6979;SDS011;3530;52.832;10.680;2022-10-30T14:19:28;7.40;;;4.03;;
6979;SDS011;3530;52.832;10.680;2022-10-30T14:22:21;8.77;;;3.90;;
6979;SDS011;3530;52.832;10.680;2022-10-30T14:25:11;8.73;;;3.72;;
6979;SDS011;3530;52.832;10.680;2022-10-30T14:27:58;12.90;;;4.22;;
6979;SDS011;3530;52.832;10.680;2022-10-30T14:30:43;11.52;;;4.13;;
6979;SDS011;3530;52.832;10.680;2022-10-30T14:42:12;9.23;;;4.25;;
6979;SDS011;3530;52.832;10.680;2022-10-30T14:45:13;6.25;;;4.18;;
6979;SDS011;3530;52.832;10.680;2022-10-30T14:48:51;6.13;;;4.00;;
6979;SDS011;3530;52.832;10.680;2022-10-30T14:51:49;7.47;;;4.03;;
6979;SDS011;3530;52.832;10.680;2022-10-30T14:54:40;13.52;;;5.78;;
6979;SDS011;3530;52.832;10.680;2022-10-30T14:57:50;6.40;;;4.20;;
6979;SDS011;3530;52.832;10.680;2022-10-30T15:00:45;8.18;;;4.78;;
6979;SDS011;3530;52.832;10.680;2022-10-30T15:06:52;12.20;;;4.75;;
6979;SDS011;3530;52.832;10.680;2022-10-30T15:15:36;9.40;;;4.43;;
6979;SDS011;3530;52.832;10.680;2022-10-30T15:18:22;7.93;;;4.60;;
6979;SDS011;3530;52.832;10.680;2022-10-30T15:21:10;6.90;;;4.50;;
6979;SDS011;3530;52.832;10.680;2022-10-30T15:24:03;7.35;;;4.45;;
6979;SDS011;3530;52.832;10.680;2022-10-30T15:26:49;9.88;;;5.97;;
6979;SDS011;3530;52.832;10.680;2022-10-30T15:29:39;8.70;;;5.13;;
6979;SDS011;3530;52.832;10.680;2022-10-30T15:32:25;6.88;;;5.20;;
6979;SDS011;3530;52.832;10.680;2022-10-30T15:35:19;7.88;;;4.97;;
6979;SDS011;3530;52.832;10.680;2022-10-30T15:38:08;9.02;;;4.53;;
6979;SDS011;3530;52.832;10.680;2022-10-30T15:40:58;5.95;;;4.50;;
6979;SDS011;3530;52.832;10.680;2022-10-30T15:43:46;10.70;;;4.93;;
6979;SDS011;3530;52.832;10.680;2022-10-30T15:46:31;8.23;;;4.72;;
6979;SDS011;3530;52.832;10.680;2022-10-30T15:49:30;5.20;;;4.43;;
6979;SDS011;3530;52.832;10.680;2022-10-30T15:52:19;6.05;;;4.47;;
6979;SDS011;3530;52.832;10.680;2022-10-30T15:55:07;7.43;;;4.63;;
6979;SDS011;3530;52.832;10.680;2022-10-30T15:57:54;12.38;;;4.85;;
6979;SDS011;3530;52.832;10.680;2022-10-30T16:00:42;8.98;;;5.25;;
6979;SDS011;3530;52.832;10.680;2022-10-30T16:03:39;8.77;;;5.15;;
6979;SDS011;3530;52.832;10.680;2022-10-30T16:06:26;8.95;;;5.10;;
6979;SDS011;3530;52.832;10.680;2022-10-30T16:09:14;8.95;;;4.40;;
6979;SDS011;3530;52.832;10.680;2022-10-30T16:11:59;6.43;;;4.80;;
6979;SDS011;3530;52.832;10.680;2022-10-30T16:14:45;6.72;;;5.15;;
6979;SDS011;3530;52.832;10.680;2022-10-30T16:17:31;9.63;;;5.35;;
6979;SDS011;3530;52.832;10.680;2022-10-30T16:20:17;11.30;;;5.22;;
6979;SDS011;3530;52.832;10.680;2022-10-30T16:23:03;9.15;;;6.30;;
6979;SDS011;3530;52.832;10.680;2022-10-30T16:25:53;9.68;;;5.43;;
6979;SDS011;3530;52.832;10.680;2022-10-30T16:28:40;6.20;;;4.57;;
6979;SDS011;3530;52.832;10.680;2022-10-30T16:31:32;9.30;;;5.13;;
6979;SDS011;3530;52.832;10.680;2022-10-30T16:34:31;10.57;;;4.97;;
6979;SDS011;3530;52.832;10.680;2022-10-30T16:37:21;8.88;;;5.40;;
6979;SDS011;3530;52.832;10.680;2022-10-30T16:40:12;14.20;;;7.85;;
6979;SDS011;3530;52.832;10.680;2022-10-30T16:43:00;12.90;;;7.40;;
6979;SDS011;3530;52.832;10.680;2022-10-30T16:45:47;13.35;;;6.57;;
6979;SDS011;3530;52.832;10.680;2022-10-30T16:48:33;12.93;;;7.05;;
6979;SDS011;3530;52.832;10.680;2022-10-30T16:51:19;10.32;;;5.38;;
6979;SDS011;3530;52.832;10.680;2022-10-30T16:54:13;6.57;;;4.90;;
6979;SDS011;3530;52.832;10.680;2022-10-30T16:57:15;8.60;;;5.88;;
6979;SDS011;3530;52.832;10.680;2022-10-30T17:00:05;9.10;;;5.47;;
6979;SDS011;3530;52.832;10.680;2022-10-30T17:02:51;5.20;;;4.70;;
6979;SDS011;3530;52.832;10.680;2022-10-30T17:05:39;6.93;;;4.65;;
6979;SDS011;3530;52.832;10.680;2022-10-30T17:15:00;7.10;;;5.22;;
6979;SDS011;3530;52.832;10.680;2022-10-30T17:18:07;8.65;;;5.78;;
6979;SDS011;3530;52.832;10.680;2022-10-30T17:21:09;8.07;;;5.00;;
6979;SDS011;3530;52.832;10.680;2022-10-30T17:23:59;8.80;;;5.53;;
6979;SDS011;3530;52.832;10.680;2022-10-30T17:26:52;9.55;;;5.55;;
6979;SDS011;3530;52.832;10.680;2022-10-30T17:32:25;10.25;;;6.00;;
6979;SDS011;3530;52.832;10.680;2022-10-30T17:35:16;11.48;;;6.13;;
6979;SDS011;3530;52.832;10.680;2022-10-30T17:38:03;7.30;;;6.05;;
6979;SDS011;3530;52.832;10.680;2022-10-30T17:40:49;9.20;;;5.53;;
6979;SDS011;3530;52.832;10.680;2022-10-30T17:43:46;13.27;;;6.00;;
6979;SDS011;3530;52.832;10.680;2022-10-30T17:46:39;10.18;;;6.15;;
6979;SDS011;3530;52.832;10.680;2022-10-30T17:49:28;7.68;;;5.35;;
6979;SDS011;3530;52.832;10.680;2022-10-30T17:52:17;9.95;;;5.78;;
6979;SDS011;3530;52.832;10.680;2022-10-30T17:55:17;11.73;;;5.63;;
6979;SDS011;3530;52.832;10.680;2022-10-30T17:58:06;7.07;;;5.20;;
6979;SDS011;3530;52.832;10.680;2022-10-30T18:00:52;12.02;;;7.88;;
6979;SDS011;3530;52.832;10.680;2022-10-30T18:03:37;13.60;;;7.47;;
6979;SDS011;3530;52.832;10.680;2022-10-30T18:06:24;12.20;;;7.10;;
6979;SDS011;3530;52.832;10.680;2022-10-30T18:09:11;9.00;;;6.28;;
6979;SDS011;3530;52.832;10.680;2022-10-30T18:11:57;15.77;;;8.13;;
6979;SDS011;3530;52.832;10.680;2022-10-30T18:14:42;13.70;;;8.25;;
6979;SDS011;3530;52.832;10.680;2022-10-30T18:17:29;13.82;;;7.45;;
6979;SDS011;3530;52.832;10.680;2022-10-30T18:20:15;14.02;;;8.15;;
6979;SDS011;3530;52.832;10.680;2022-10-30T18:23:01;11.45;;;8.35;;
6979;SDS011;3530;52.832;10.680;2022-10-30T18:25:47;14.98;;;10.13;;
6979;SDS011;3530;52.832;10.680;2022-10-30T18:28:34;17.02;;;9.93;;
6979;SDS011;3530;52.832;10.680;2022-10-30T18:31:20;12.73;;;9.10;;
6979;SDS011;3530;52.832;10.680;2022-10-30T18:34:14;16.50;;;10.43;;
6979;SDS011;3530;52.832;10.680;2022-10-30T18:37:03;13.70;;;9.57;;
6979;SDS011;3530;52.832;10.680;2022-10-30T18:39:49;13.45;;;9.02;;
6979;SDS011;3530;52.832;10.680;2022-10-30T18:42:35;13.55;;;7.43;;
6979;SDS011;3530;52.832;10.680;2022-10-30T18:48:10;8.23;;;6.50;;
6979;SDS011;3530;52.832;10.680;2022-10-30T18:50:56;12.73;;;6.45;;
6979;SDS011;3530;52.832;10.680;2022-10-30T18:53:41;9.95;;;6.38;;
6979;SDS011;3530;52.832;10.680;2022-10-30T18:56:35;8.13;;;6.28;;
6979;SDS011;3530;52.832;10.680;2022-10-30T18:59:20;9.05;;;5.97;;
6979;SDS011;3530;52.832;10.680;2022-10-30T19:08:17;6.90;;;6.00;;
6979;SDS011;3530;52.832;10.680;2022-10-30T19:11:02;6.95;;;5.85;;